Time;durP1;ratioP1;P1;durP2;ratioP2;P2;SDS_P1;SDS_P2;PMS_P1;PMS_P2;Temp;Humidity;BMP_temperature;BMP_pressure;BME280_temperature;BME280_humidity;BME280_pressure;Samples;Min_cycle;Max_cycle;Signal;HPM_P1;HPM_P2
2023/04/25 00:00:55;;;;;;;25.85;5.18;;;;;;;6.53;100.00;101196.03;5052535;28;20040;-55
2023/04/25 00:03:20;;;;;;;20.42;3.85;;;;;;;6.47;100.00;101207.41;5069064;28;20111;-58
2023/04/25 00:05:46;;;;;;;16.00;3.78;;;;;;;6.45;100.00;101206.56;5067428;28;20116;-57
2023/04/25 00:08:11;;;;;;;18.90;4.13;;;;;;;6.37;100.00;101214.50;5067161;28;20080;-56
2023/04/25 00:10:37;;;;;;;25.88;5.03;;;;;;;6.28;100.00;101211.97;5068468;28;20032;-54
2023/04/25 00:13:02;;;;;;;14.88;3.33;;;;;;;6.19;100.00;101211.19;5068291;28;20522;-53
2023/04/25 00:15:30;;;;;;;21.23;4.10;;;;;;;6.19;100.00;101216.41;5072794;28;20485;-56
2023/04/25 00:17:56;;;;;;;21.42;3.67;;;;;;;6.13;100.00;101212.97;5089279;28;20024;-55
2023/04/25 00:20:23;;;;;;;22.80;4.53;;;;;;;6.08;100.00;101215.63;5086192;28;20039;-55
2023/04/25 00:22:49;;;;;;;25.75;5.68;;;;;;;6.06;100.00;101218.25;5087765;28;20024;-53
2023/04/25 00:25:14;;;;;;;13.80;3.60;;;;;;;6.00;100.00;101218.31;5088761;28;20038;-56
2023/04/25 00:27:39;;;;;;;14.88;3.95;;;;;;;5.98;100.00;101214.81;5089290;28;20019;-57
2023/04/25 00:30:05;;;;;;;18.58;3.83;;;;;;;5.93;100.00;101221.84;5089209;28;20099;-57
2023/04/25 00:32:30;;;;;;;13.38;3.80;;;;;;;5.96;100.00;101219.19;5088972;28;20020;-59
2023/04/25 00:34:57;;;;;;;16.58;3.40;;;;;;;5.99;100.00;101224.41;5089030;28;20024;-56
2023/04/25 00:37:22;;;;;;;19.63;3.83;;;;;;;5.99;100.00;101224.41;5080338;28;20031;-56
2023/04/25 00:39:48;;;;;;;22.55;3.92;;;;;;;6.03;100.00;101220.03;5068475;28;20029;-57
2023/04/25 00:42:13;;;;;;;18.15;3.78;;;;;;;6.07;100.00;101221.75;5066670;28;20482;-58
2023/04/25 00:44:39;;;;;;;17.90;3.92;;;;;;;6.09;100.00;101222.63;5067004;28;20027;-52
2023/04/25 00:47:04;;;;;;;22.23;3.50;;;;;;;6.11;100.00;101222.59;5066640;28;20036;-57
2023/04/25 00:49:30;;;;;;;18.38;3.25;;;;;;;6.12;100.00;101219.09;5067984;28;20115;-55
2023/04/25 00:51:56;;;;;;;17.45;3.88;;;;;;;6.13;100.00;101218.22;5067687;28;20025;-55
2023/04/25 00:54:21;;;;;;;13.88;3.35;;;;;;;6.12;100.00;101229.56;5067689;28;20028;-54
2023/04/25 00:56:46;;;;;;;15.25;3.45;;;;;;;6.09;100.00;101232.22;5066179;28;20107;-56
2023/04/25 00:59:13;;;;;;;14.73;3.70;;;;;;;6.03;100.00;101233.97;5067170;28;20033;-54
2023/04/25 01:01:38;;;;;;;17.52;3.65;;;;;;;6.01;100.00;101240.97;5066311;28;20367;-54
2023/04/25 01:04:04;;;;;;;17.90;3.97;;;;;;;5.95;100.00;101241.00;5067169;28;20039;-53
2023/04/25 01:06:30;;;;;;;17.35;3.72;;;;;;;5.91;100.00;101245.41;5067500;28;20154;-56
2023/04/25 01:08:56;;;;;;;14.38;3.28;;;;;;;5.87;100.00;101240.22;5067332;28;20089;-53
2023/04/25 01:11:21;;;;;;;14.90;3.10;;;;;;;5.83;100.00;101244.59;5067517;28;20036;-54
2023/04/25 01:13:47;;;;;;;18.88;3.40;;;;;;;5.77;100.00;101240.28;5068765;28;20111;-52
2023/04/25 01:16:12;;;;;;;15.27;3.40;;;;;;;5.76;100.00;101240.28;5068350;28;20028;-55
2023/04/25 01:18:41;;;;;;;12.70;3.38;;;;;;;5.69;100.00;101236.84;5094411;28;20089;-53
2023/04/25 01:21:10;;;;;;;;;;;;;;;5.65;100.00;101240.34;5066705;28;20103;-54
2023/04/25 01:23:37;;;;;;;17.50;3.50;;;;;;;5.61;100.00;101242.13;5053723;28;19928;-54
2023/04/25 01:26:03;;;;;;;20.27;4.63;;;;;;;5.54;100.00;101243.06;5062291;28;20028;-53
2023/04/25 01:28:28;;;;;;;19.25;3.10;;;;;;;5.49;100.00;101247.44;5059161;28;20055;-56
2023/04/25 01:30:54;;;;;;;13.55;2.75;;;;;;;5.43;100.00;101249.22;5067037;28;20401;-54
2023/04/25 01:33:20;;;;;;;10.85;3.17;;;;;;;5.42;100.00;101251.84;5067395;28;20533;-55
2023/04/25 01:35:47;;;;;;;21.48;4.30;;;;;;;5.40;100.00;101253.59;5119298;27;20034;-56
2023/04/25 01:38:12;;;;;;;14.98;3.88;;;;;;;5.35;100.00;101261.44;5088466;28;20067;-57
2023/04/25 01:40:39;;;;;;;17.02;3.15;;;;;;;5.33;100.00;101260.59;5089182;28;20040;-53
2023/04/25 01:43:04;;;;;;;11.95;2.80;;;;;;;5.27;100.00;101261.47;5071759;28;20074;-53
2023/04/25 01:45:30;;;;;;;21.95;3.10;;;;;;;5.24;100.00;101258.88;5072306;28;20036;-56
2023/04/25 01:47:59;;;;;;;11.63;3.45;;;;;;;5.21;100.00;101258.03;5075288;28;20064;-55
2023/04/25 01:50:24;;;;;;;13.63;3.25;;;;;;;5.12;100.00;101269.41;5066649;28;20021;-55
2023/04/25 01:52:50;;;;;;;13.07;3.47;;;;;;;5.03;100.00;101265.94;5066977;28;20113;-56
2023/04/25 01:55:15;;;;;;;22.05;3.25;;;;;;;5.01;100.00;101257.25;5067110;28;20171;-55
2023/04/25 01:57:41;;;;;;;17.02;3.90;;;;;;;5.09;100.00;101264.19;5066692;28;20028;-56
2023/04/25 02:00:08;;;;;;;17.25;3.92;;;;;;;5.20;100.00;101266.75;5066858;28;20017;-54
2023/04/25 02:02:34;;;;;;;16.52;3.72;;;;;;;5.30;100.00;101268.47;5067472;28;20039;-57
2023/04/25 02:05:00;;;;;;;18.55;3.95;;;;;;;5.42;100.00;101272.75;5067205;28;20104;-56
2023/04/25 02:07:26;;;;;;;22.60;4.20;;;;;;;5.50;100.00;101270.94;5084243;28;20113;-56
2023/04/25 02:09:51;;;;;;;16.67;4.07;;;;;;;5.57;100.00;101266.56;5066931;28;20538;-56
2023/04/25 02:12:17;;;;;;;19.98;3.88;;;;;;;5.65;100.00;101266.50;5066616;28;20145;-57
2023/04/25 02:14:42;;;;;;;10.60;2.92;;;;;;;5.72;100.00;101272.56;5067076;28;20030;-57
2023/04/25 02:17:07;;;;;;;12.82;3.15;;;;;;;5.81;100.00;101265.50;5065842;28;20029;-55
2023/04/25 02:19:33;;;;;;;15.65;3.38;;;;;;;5.86;100.00;101269.84;5066581;28;20086;-57
2023/04/25 02:21:58;;;;;;;11.68;3.88;;;;;;;5.94;100.00;101270.66;5067004;28;20107;-56
2023/04/25 02:24:24;;;;;;;17.05;3.15;;;;;;;5.99;100.00;101268.88;5067075;28;20024;-58
2023/04/25 02:26:49;;;;;;;8.93;2.55;;;;;;;6.01;100.00;101272.34;5067483;28;20158;-52
2023/04/25 02:29:15;;;;;;;13.25;2.63;;;;;;;6.09;100.00;101274.06;5074840;28;20028;-57
2023/04/25 02:31:40;;;;;;;10.13;2.53;;;;;;;6.17;100.00;101274.88;5086030;28;20016;-55
2023/04/25 02:34:06;;;;;;;10.00;3.15;;;;;;;6.19;100.00;101270.50;5086107;28;20030;-56
2023/04/25 02:36:34;;;;;;;14.95;3.10;;;;;;;6.22;100.00;101273.09;5086507;28;20107;-57
2023/04/25 02:39:00;;;;;;;10.68;2.47;;;;;;;6.24;100.00;101266.09;5088107;28;20038;-59
2023/04/25 02:41:25;;;;;;;10.48;2.53;;;;;;;6.28;100.00;101270.41;5086669;28;20056;-56
2023/04/25 02:43:50;;;;;;;14.57;2.72;;;;;;;6.30;100.00;101271.25;5087982;28;20047;-58
2023/04/25 02:46:16;;;;;;;12.70;2.28;;;;;;;6.29;100.00;101277.38;5087410;28;20028;-57
2023/04/25 02:48:41;;;;;;;18.23;3.78;;;;;;;6.27;100.00;101281.78;5082450;28;20446;-59
2023/04/25 02:51:06;;;;;;;10.88;2.83;;;;;;;6.30;100.00;101278.25;5065409;28;20421;-57
2023/04/25 02:53:31;;;;;;;18.70;3.25;;;;;;;6.30;100.00;101279.09;5066069;28;20459;-57
2023/04/25 02:55:58;;;;;;;10.75;2.75;;;;;;;6.32;100.00;101274.75;5067037;28;20033;-57
2023/04/25 02:58:24;;;;;;;9.32;2.30;;;;;;;6.34;100.00;101271.22;5066749;28;20024;-53
2023/04/25 03:00:49;;;;;;;10.05;2.70;;;;;;;6.33;100.00;101275.63;5065742;28;20802;-59
2023/04/25 03:03:17;;;;;;;12.73;3.08;;;;;;;6.37;100.00;101276.44;5066301;28;20029;-57
2023/04/25 03:05:43;;;;;;;19.52;3.53;;;;;;;6.41;100.00;101278.16;5066543;28;20028;-58
2023/04/25 03:08:08;;;;;;;13.75;2.72;;;;;;;6.43;100.00;101273.75;5066573;28;20024;-55
2023/04/25 03:10:33;;;;;;;9.40;2.50;;;;;;;6.43;100.00;101273.75;5066259;28;20558;-53
2023/04/25 03:12:59;;;;;;;14.85;2.80;;;;;;;6.44;100.00;101267.63;5067196;28;20021;-58
2023/04/25 03:15:24;;;;;;;13.80;2.80;;;;;;;6.48;100.00;101277.22;5098218;28;20036;-56
2023/04/25 03:17:50;;;;;;;12.45;2.35;;;;;;;6.43;100.00;101282.50;5065381;28;20056;-56
2023/04/25 03:20:15;;;;;;;15.48;2.72;;;;;;;6.38;100.00;101286.03;5064753;28;20024;-56
2023/04/25 03:22:41;;;;;;;12.18;2.90;;;;;;;6.38;100.00;101281.66;5066038;28;20063;-58
2023/04/25 03:25:07;;;;;;;14.02;2.53;;;;;;;6.38;100.00;101286.91;5065751;28;20056;-54
2023/04/25 03:27:32;;;;;;;7.60;1.90;;;;;;;6.40;100.00;101285.16;5064368;28;20044;-55
2023/04/25 03:29:57;;;;;;;14.55;2.20;;;;;;;6.43;100.00;101281.63;5065479;28;20055;-59
2023/04/25 03:32:23;;;;;;;14.80;2.35;;;;;;;6.52;100.00;101289.41;5065417;28;20074;-59
2023/04/25 03:34:48;;;;;;;9.98;1.92;;;;;;;6.56;100.00;101284.97;5064903;28;20057;-56
2023/04/25 03:37:13;;;;;;;12.93;2.85;;;;;;;6.62;100.00;101284.06;5065931;28;20029;-56
2023/04/25 03:39:39;;;;;;;10.00;2.13;;;;;;;6.60;100.00;101281.47;5065127;28;20094;-59
2023/04/25 03:42:04;;;;;;;10.15;2.22;;;;;;;6.59;100.00;101287.56;5065420;28;20071;-56
2023/04/25 03:44:29;;;;;;;26.15;2.80;;;;;;;6.62;100.00;101294.53;5066344;28;20521;-56
2023/04/25 03:46:55;;;;;;;13.00;2.25;;;;;;;6.60;100.00;101296.31;5065019;28;20039;-56
2023/04/25 03:49:20;;;;;;;11.85;2.30;;;;;;;6.52;100.00;101294.63;5066899;28;20091;-58
2023/04/25 03:51:45;;;;;;;14.35;2.72;;;;;;;6.51;100.00;101298.13;5068847;28;20044;-56
2023/04/25 03:54:11;;;;;;;20.23;2.53;;;;;;;6.53;100.00;101298.97;5068726;28;20073;-56
2023/04/25 03:56:36;;;;;;;10.38;2.30;;;;;;;6.50;100.00;101299.00;5069352;28;20812;-53
2023/04/25 03:59:01;;;;;;;19.98;3.03;;;;;;;6.52;100.00;101305.09;5069276;28;20081;-58
2023/04/25 04:01:27;;;;;;;15.30;2.53;;;;;;;6.51;100.00;101303.38;5064214;28;20124;-55
2023/04/25 04:03:52;;;;;;;13.18;2.35;;;;;;;6.46;100.00;101310.38;5056050;28;20403;-56
2023/04/25 04:06:18;;;;;;;8.68;2.13;;;;;;;6.50;100.00;101312.09;5062104;28;20028;-55
2023/04/25 04:08:44;;;;;;;13.55;2.75;;;;;;;6.50;100.00;101316.47;5100879;28;20605;-59
2023/04/25 04:11:09;;;;;;;9.73;2.15;;;;;;;6.45;100.00;101314.75;5068404;28;20025;-56
2023/04/25 04:13:34;;;;;;;12.05;2.28;;;;;;;6.47;100.00;101313.88;5069546;28;20101;-54
2023/04/25 04:16:00;;;;;;;18.48;2.55;;;;;;;6.50;100.00;101317.34;5068989;28;20029;-58
2023/04/25 04:18:25;;;;;;;12.82;2.33;;;;;;;6.49;100.00;101320.84;5068347;28;20019;-59
2023/04/25 04:20:50;;;;;;;10.88;2.50;;;;;;;6.44;100.00;101322.63;5068155;28;20527;-53
2023/04/25 04:23:16;;;;;;;15.55;2.67;;;;;;;6.43;100.00;101323.50;5068333;28;20012;-54
2023/04/25 04:25:41;;;;;;;8.13;2.10;;;;;;;6.41;100.00;101331.38;5068548;28;20029;-56
2023/04/25 04:28:07;;;;;;;13.27;2.17;;;;;;;6.39;100.00;101332.28;5053855;28;20043;-56
2023/04/25 04:30:35;;;;;;;15.52;3.30;;;;;;;6.37;100.00;101331.41;5068640;28;20025;-56
2023/04/25 04:33:00;;;;;;;16.08;3.13;;;;;;;6.29;100.00;101332.34;5069002;28;20424;-61
2023/04/25 04:35:26;;;;;;;13.55;2.20;;;;;;;6.28;100.00;101333.22;5067720;28;20048;-53
2023/04/25 04:37:51;;;;;;;20.00;2.60;;;;;;;6.30;100.00;101328.84;5067596;28;20479;-54
2023/04/25 04:40:17;;;;;;;15.73;2.10;;;;;;;6.34;100.00;101337.53;5067667;28;20089;-55
2023/04/25 04:42:43;;;;;;;10.68;2.25;;;;;;;6.41;100.00;101354.94;5068348;28;20029;-54
2023/04/25 04:45:09;;;;;;;15.20;2.30;;;;;;;6.45;100.00;101351.41;5054854;28;20696;-52
2023/04/25 04:47:36;;;;;;;10.55;2.63;;;;;;;6.19;100.00;101354.22;5068624;28;20024;-56
2023/04/25 04:50:02;;;;;;;13.10;2.00;;;;;;;6.09;100.00;101356.06;5066412;28;20058;-55
2023/04/25 04:52:28;;;;;;;12.65;2.08;;;;;;;6.11;100.00;101356.03;5066490;28;20040;-56
2023/04/25 04:54:53;;;;;;;7.65;2.00;;;;;;;6.21;100.00;101352.47;5068603;28;20028;-55
2023/04/25 04:57:18;;;;;;;10.30;2.20;;;;;;;6.15;100.00;101350.78;5067392;28;20032;-56
2023/04/25 04:59:44;;;;;;;9.07;2.25;;;;;;;6.27;100.00;101357.69;5068900;28;20031;-57
2023/04/25 05:02:09;;;;;;;11.07;2.30;;;;;;;6.27;100.00;101362.91;5066177;28;20038;-56
2023/04/25 05:04:35;;;;;;;11.68;2.00;;;;;;;6.28;100.00;101354.16;5066832;28;20025;-56
2023/04/25 05:07:00;;;;;;;7.13;1.80;;;;;;;6.20;100.00;101358.56;5067373;28;20104;-58
2023/04/25 05:09:26;;;;;;;18.50;3.22;;;;;;;6.20;100.00;101361.19;5066692;28;20403;-53
2023/04/25 05:11:52;;;;;;;9.93;2.15;;;;;;;6.16;100.00;101360.38;5066057;28;20028;-56
2023/04/25 05:14:17;;;;;;;8.13;1.58;;;;;;;6.12;100.00;101369.13;5066850;28;20024;-54
2023/04/25 05:16:43;;;;;;;8.90;2.50;;;;;;;6.15;100.00;101374.34;5067665;28;20564;-57
2023/04/25 05:19:08;;;;;;;9.75;2.10;;;;;;;6.17;100.00;101379.56;5067629;28;20378;-55
2023/04/25 05:21:34;;;;;;;12.77;2.20;;;;;;;6.21;100.00;101380.38;5067190;28;20048;-57
2023/04/25 05:24:00;;;;;;;11.90;3.15;;;;;;;6.25;100.00;101384.72;5067866;28;20021;-55
2023/04/25 05:26:25;;;;;;;7.63;1.90;;;;;;;6.34;100.00;101394.25;5068794;28;20032;-55
2023/04/25 05:28:50;;;;;;;6.00;1.85;;;;;;;6.37;100.00;101399.47;5068351;28;20024;-57
2023/04/25 05:31:16;;;;;;;9.13;2.28;;;;;;;6.51;100.00;101407.22;5067847;28;20028;-55
2023/04/25 05:33:41;;;;;;;11.02;2.25;;;;;;;6.66;100.00;101424.56;5067094;28;20085;-54
2023/04/25 05:36:07;;;;;;;7.00;1.85;;;;;;;6.75;100.00;101431.47;5067426;28;20077;-57
2023/04/25 05:38:32;;;;;;;9.13;2.30;;;;;;;6.83;100.00;101432.28;5068126;28;20065;-55
2023/04/25 05:40:58;;;;;;;5.47;2.20;;;;;;;6.81;100.00;101437.53;5067663;28;20098;-57
2023/04/25 05:43:23;;;;;;;8.57;2.22;;;;;;;6.60;100.00;101445.56;5067531;28;20363;-55
2023/04/25 05:45:48;;;;;;;8.20;1.50;;;;;;;6.63;100.00;101440.31;5065726;28;20020;-61
2023/04/25 05:48:14;;;;;;;6.65;1.42;;;;;;;6.63;100.00;101442.94;5067501;28;20103;-52
2023/04/25 05:50:39;;;;;;;11.52;1.80;;;;;;;6.57;100.00;101436.84;5067229;28;20474;-55
2023/04/25 05:53:05;;;;;;;8.38;2.05;;;;;;;6.53;100.00;101440.38;5067673;28;20032;-53
2023/04/25 05:55:31;;;;;;;5.45;1.35;;;;;;;6.64;100.00;101439.41;5053280;28;20071;-60
2023/04/25 05:57:56;;;;;;;5.57;1.52;;;;;;;6.63;100.00;101440.31;5047921;28;20062;-57
2023/04/25 06:00:22;;;;;;;6.97;1.52;;;;;;;6.82;100.00;101455.00;5061515;28;20212;-57
2023/04/25 06:02:48;;;;;;;6.63;1.38;;;;;;;7.00;100.00;101468.81;5046333;28;20021;-54
2023/04/25 06:05:13;;;;;;;7.60;1.98;;;;;;;7.04;100.00;101462.66;5045039;28;20021;-56
2023/04/25 06:07:38;;;;;;;9.57;1.75;;;;;;;6.95;100.00;101473.22;5046039;28;20087;-54
2023/04/25 06:10:06;;;;;;;5.82;1.48;;;;;;;6.70;100.00;101473.41;5059395;28;20017;-55
2023/04/25 06:12:34;;;;;;;5.82;1.42;;;;;;;6.44;100.00;101484.94;5065561;28;20119;-56
2023/04/25 06:15:00;;;;;;;6.85;1.48;;;;;;;6.21;100.00;101496.41;5064701;28;20048;-56
2023/04/25 06:17:25;;;;;;;5.03;1.15;;;;;;;6.27;100.00;101491.16;5066063;28;20063;-56
2023/04/25 06:19:50;;;;;;;7.80;1.85;;;;;;;6.32;100.00;101481.50;5063217;28;20025;-55
2023/04/25 06:22:16;;;;;;;8.68;1.55;;;;;;;6.32;100.00;101478.91;5064668;28;20105;-58
2023/04/25 06:24:41;;;;;;;8.63;1.73;;;;;;;6.41;100.00;101471.88;5065370;28;20367;-60
2023/04/25 06:27:06;;;;;;;7.10;1.70;;;;;;;6.47;100.00;101473.59;5063903;28;20110;-56
2023/04/25 06:29:32;;;;;;;6.10;1.48;;;;;;;6.49;100.00;101472.69;5065865;28;20028;-53
2023/04/25 06:31:57;;;;;;;5.25;1.20;;;;;;;6.57;100.00;101478.72;5067641;28;20024;-55
2023/04/25 06:34:22;;;;;;;5.57;1.70;;;;;;;6.70;100.00;101474.28;5065698;28;20113;-52
2023/04/25 06:36:48;;;;;;;4.15;1.42;;;;;;;6.76;100.00;101476.00;5065449;28;20035;-58
2023/04/25 06:39:13;;;;;;;7.95;1.65;;;;;;;6.82;100.00;101483.81;5066979;28;20036;-54
2023/04/25 06:41:38;;;;;;;7.90;2.65;;;;;;;6.92;100.00;101481.97;5065655;28;20041;-53
2023/04/25 06:44:04;;;;;;;3.15;1.38;;;;;;;7.15;100.00;101486.16;5065119;28;20051;-57
2023/04/25 06:46:29;;;;;;;6.72;1.60;;;;;;;7.23;100.00;101495.69;5066348;28;20033;-58
2023/04/25 06:48:55;;;;;;;10.80;1.83;;;;;;;7.42;100.00;101493.75;5062389;28;20103;-58
2023/04/25 06:51:20;;;;;;;7.55;1.40;;;;;;;7.65;100.00;101496.13;5065276;28;20067;-52
2023/04/25 06:53:46;;;;;;;4.50;1.42;;;;;;;7.76;100.00;101495.13;5063872;28;20091;-58
2023/04/25 06:56:11;;;;;;;3.13;1.23;;;;;;;7.82;100.00;101495.94;5064741;28;20074;-53
2023/04/25 06:58:36;;;;;;;6.78;2.13;;;;;;;7.96;100.00;101497.53;5056873;28;20056;-56
2023/04/25 07:01:02;;;;;;;3.33;1.30;;;;;;;8.19;100.00;101497.22;5062425;28;20021;-55
2023/04/25 07:03:28;;;;;;;11.02;1.67;;;;;;;8.26;100.00;101495.41;5063829;28;20031;-56
2023/04/25 07:05:53;;;;;;;11.27;2.00;;;;;;;8.21;100.00;101491.97;5063483;28;20025;-56
2023/04/25 07:08:18;;;;;;;7.07;1.45;;;;;;;8.22;100.00;101497.19;5065475;28;20023;-57
2023/04/25 07:10:45;;;;;;;7.47;1.55;;;;;;;8.24;100.00;101486.69;5064043;28;20074;-57
2023/04/25 07:13:11;;;;;;;7.88;2.00;;;;;;;8.20;100.00;101500.75;5065244;28;20390;-56
2023/04/25 07:15:36;;;;;;;11.43;1.88;;;;;;;8.25;100.00;101504.16;5063063;28;20017;-58
2023/04/25 07:18:02;;;;;;;6.43;1.45;;;;;;;8.26;100.00;101500.66;5063980;28;20126;-56
2023/04/25 07:20:27;;;;;;;9.55;1.60;;;;;;;8.06;100.00;101504.41;5063043;28;20028;-57
2023/04/25 07:22:53;;;;;;;7.60;1.60;;;;;;;8.09;100.00;101507.00;5065150;28;20024;-59
2023/04/25 07:25:19;;;;;;;8.80;2.10;;;;;;;8.27;100.00;101510.25;5068559;28;20025;-56
2023/04/25 07:27:44;;;;;;;9.15;1.45;;;;;;;8.33;100.00;101504.06;5068965;28;20035;-57
2023/04/25 07:30:10;;;;;;;11.75;1.73;;;;;;;8.43;100.00;101507.44;5069399;28;20028;-53
2023/04/25 07:32:35;;;;;;;9.00;1.95;;;;;;;8.55;100.00;101516.94;5068947;28;20028;-55
2023/04/25 07:35:01;;;;;;;16.58;1.77;;;;;;;8.56;100.00;101522.16;5067823;28;20021;-58
2023/04/25 07:37:27;;;;;;;12.48;1.65;;;;;;;8.73;100.00;101515.78;5062869;28;20055;-57
2023/04/25 07:39:52;;;;;;;11.70;1.88;;;;;;;8.79;100.00;101520.94;5049435;28;20049;-54
2023/04/25 07:42:17;;;;;;;9.20;1.60;;;;;;;8.79;100.00;101525.34;5047009;28;20522;-54
2023/04/25 07:44:43;;;;;;;4.55;1.50;;;;;;;8.83;100.00;101520.03;5049122;28;20078;-53
2023/04/25 07:47:09;;;;;;;5.10;1.35;;;;;;;8.93;98.59;101520.72;5048842;28;20029;-56
2023/04/25 07:49:35;;;;;;;14.60;3.63;;;;;;;8.91;95.32;101529.53;5066276;28;20040;-55
2023/04/25 07:52:01;;;;;;;9.25;1.63;;;;;;;9.08;94.09;101532.75;5069375;28;20028;-58
2023/04/25 07:54:26;;;;;;;8.35;1.27;;;;;;;9.02;93.17;101526.72;5070072;28;20025;-58
2023/04/25 07:56:52;;;;;;;7.20;1.40;;;;;;;8.98;93.70;101529.38;5068021;28;20036;-56
2023/04/25 07:59:17;;;;;;;9.73;1.33;;;;;;;8.64;94.52;101534.31;5069707;28;20028;-56
2023/04/25 08:01:42;;;;;;;6.93;1.50;;;;;;;8.67;96.26;101535.13;5068653;28;20032;-56
2023/04/25 08:04:08;;;;;;;14.70;1.50;;;;;;;8.78;96.80;101531.47;5067964;28;20052;-50
2023/04/25 08:06:33;;;;;;;11.18;1.70;;;;;;;8.90;94.63;101546.19;5068825;28;20020;-53
2023/04/25 08:08:58;;;;;;;10.38;1.60;;;;;;;8.96;91.12;101551.34;5069696;28;20047;-57
2023/04/25 08:11:24;;;;;;;5.63;1.52;;;;;;;9.11;89.53;101558.13;5069444;28;20539;-56
2023/04/25 08:13:50;;;;;;;6.82;1.90;;;;;;;9.31;90.08;101552.56;5070311;28;20021;-55
2023/04/25 08:16:15;;;;;;;8.23;1.60;;;;;;;9.64;91.42;101566.88;5069252;28;20035;-60
2023/04/25 08:18:40;;;;;;;11.85;1.95;;;;;;;9.79;87.61;101571.88;5048796;28;20402;-58
2023/04/25 08:21:08;;;;;;;4.28;1.15;;;;;;;10.17;84.72;101572.00;5048173;28;20109;-59
2023/04/25 08:23:34;;;;;;;9.82;1.75;;;;;;;10.33;82.63;101572.53;5055243;28;20589;-55
2023/04/25 08:25:59;;;;;;;9.15;1.80;;;;;;;10.18;83.48;101572.88;5069294;28;20115;-56
2023/04/25 08:28:25;;;;;;;10.30;1.85;;;;;;;10.05;82.17;101588.91;5068639;28;20068;-58
2023/04/25 08:30:50;;;;;;;8.05;1.60;;;;;;;10.20;82.86;101584.22;5069758;28;20248;-56
2023/04/25 08:33:15;;;;;;;11.60;1.48;;;;;;;10.13;85.92;101596.66;5069441;28;20039;-56
2023/04/25 08:35:41;;;;;;;6.53;1.80;;;;;;;9.73;86.24;101595.66;5068695;28;20045;-54
2023/04/25 08:38:06;;;;;;;5.28;1.30;;;;;;;9.41;87.65;101610.22;5067088;28;20078;-55
2023/04/25 08:40:35;;;;;;;5.75;1.45;;;;;;;9.21;87.24;101612.31;5068861;28;20051;-53
2023/04/25 08:43:03;;;;;;;8.43;1.58;;;;;;;9.33;88.23;101603.34;5083070;28;20033;-55
2023/04/25 08:45:31;;;;;;;8.07;1.38;;;;;;;9.67;86.23;101603.66;5067947;28;20107;-56
2023/04/25 08:47:57;;;;;;;5.15;1.35;;;;;;;9.86;84.99;101599.81;5066907;28;20020;-58
2023/04/25 08:50:23;;;;;;;3.65;1.20;;;;;;;10.17;83.55;101610.66;5068099;28;20425;-56
2023/04/25 08:52:52;;;;;;;6.95;1.45;;;;;;;10.08;81.88;101612.56;5068962;28;20386;-54
2023/04/25 08:55:18;;;;;;;5.72;1.20;;;;;;;10.19;84.09;101624.66;5067187;28;20131;-57
2023/04/25 08:57:43;;;;;;;6.47;1.20;;;;;;;10.15;84.64;101621.22;5067978;28;20390;-55
2023/04/25 09:00:11;;;;;;;7.53;1.10;;;;;;;10.22;83.64;101633.38;5064540;28;20032;-57
2023/04/25 09:02:37;;;;;;;6.40;1.40;;;;;;;10.25;82.46;101640.34;5062728;28;20028;-55
2023/04/25 09:05:04;;;;;;;5.10;1.17;;;;;;;10.15;78.48;101646.69;5065463;28;20027;-56
2023/04/25 09:07:29;;;;;;;2.15;1.05;;;;;;;10.09;78.87;101647.66;5067804;28;20025;-56
2023/04/25 09:09:55;;;;;;;6.13;1.27;;;;;;;9.97;77.42;101649.63;5067049;28;20019;-54
2023/04/25 09:12:20;;;;;;;7.63;1.17;;;;;;;9.65;78.98;101652.81;5067219;28;20028;-60
2023/04/25 09:15:08;;;;;;;11.10;1.30;;;;;;;9.60;80.86;101672.19;5083209;28;20028;-52
2023/04/25 09:17:33;;;;;;;11.02;2.05;;;;;;;9.64;87.64;101666.88;5067969;28;20029;-56
2023/04/25 09:20:08;;;;;;;8.93;1.35;;;;;;;9.32;96.72;101671.75;5066973;28;20026;-59
2023/04/25 09:22:35;;;;;;;6.93;1.50;;;;;;;9.17;98.42;101681.63;5067944;28;20052;-56
2023/04/25 09:25:04;;;;;;;8.30;1.42;;;;;;;9.07;99.95;101685.25;5065638;28;20025;-58
2023/04/25 09:27:29;;;;;;;6.10;1.25;;;;;;;8.97;100.00;101688.00;5067690;28;20024;-53
2023/04/25 09:30:01;;;;;;;9.02;1.52;;;;;;;8.76;100.00;101691.78;5066834;28;20035;-56
2023/04/25 09:32:26;;;;;;;5.95;1.20;;;;;;;8.30;100.00;101695.78;5056393;28;20029;-60
2023/04/25 09:34:54;;;;;;;9.63;1.75;;;;;;;8.21;100.00;101691.50;5064583;28;20036;-57
2023/04/25 09:37:23;;;;;;;4.28;1.45;;;;;;;8.29;100.00;101700.19;5067029;28;20026;-58
2023/04/25 09:40:02;;;;;;;5.65;1.45;;;;;;;8.42;100.00;101702.66;5065946;28;20078;-56
2023/04/25 09:42:28;;;;;;;8.07;1.10;;;;;;;8.57;100.00;101699.03;5067715;28;20518;-59
2023/04/25 09:44:55;;;;;;;7.28;1.00;;;;;;;8.42;100.00;101702.66;5066996;28;20025;-57
2023/04/25 09:47:23;;;;;;;7.15;1.10;;;;;;;8.37;100.00;101707.09;5066091;28;20467;-58
2023/04/25 09:49:49;;;;;;;2.95;0.90;;;;;;;8.20;100.00;101701.16;5066767;28;20663;-54
2023/04/25 09:52:16;;;;;;;5.80;1.00;;;;;;;8.52;97.95;101698.19;5067060;28;20052;-57
2023/04/25 09:54:42;;;;;;;7.18;1.63;;;;;;;8.57;96.90;101710.41;5067250;28;20028;-56
2023/04/25 09:57:11;;;;;;;9.95;1.25;;;;;;;8.96;92.57;101703.81;5065014;28;20024;-54
2023/04/25 09:59:39;;;;;;;8.00;1.77;;;;;;;8.99;96.04;101714.28;5065294;28;20032;-56
2023/04/25 10:02:06;;;;;;;7.25;1.63;;;;;;;9.18;96.03;101711.41;5065734;28;20116;-54
2023/04/25 10:04:34;;;;;;;8.02;1.67;;;;;;;9.54;92.73;101703.84;5064982;28;20111;-59
2023/04/25 10:07:01;;;;;;;7.95;1.48;;;;;;;9.43;92.29;101706.66;5068060;28;20105;-56
2023/04/25 10:09:33;;;;;;;8.55;1.73;;;;;;;9.72;91.22;101720.22;5099779;28;20475;-59
2023/04/25 10:11:59;;;;;;;5.72;1.58;;;;;;;10.18;89.92;101710.69;5067119;28;20103;-53
2023/04/25 10:14:25;;;;;;;7.65;1.40;;;;;;;10.20;89.07;101718.56;5063865;28;20036;-56
2023/04/25 10:16:53;;;;;;;9.10;2.33;;;;;;;10.38;86.35;101722.63;5063286;28;20315;-54
2023/04/25 10:19:19;;;;;;;12.50;1.60;;;;;;;10.42;86.74;101712.91;5064245;28;20542;-57
2023/04/25 10:21:57;;;;;;;10.45;2.00;;;;;;;10.56;86.76;101716.16;5063973;28;20051;-58
2023/04/25 10:24:22;;;;;;;5.40;1.50;;;;;;;10.73;85.37;101720.22;5064183;28;20021;-56
2023/04/25 10:26:48;;;;;;;6.00;1.10;;;;;;;11.01;87.16;101727.56;5065235;28;20086;-55
2023/04/25 10:29:21;;;;;;;8.25;1.38;;;;;;;10.90;80.78;101719.00;5064628;28;20029;-57
2023/04/25 10:31:47;;;;;;;8.40;1.23;;;;;;;10.74;82.78;101724.59;5065858;28;20052;-60
2023/04/25 10:34:12;;;;;;;8.98;1.50;;;;;;;11.04;84.38;101723.97;5063650;28;20120;-55
2023/04/25 10:36:38;;;;;;;9.30;1.42;;;;;;;10.62;81.16;101725.72;5081931;28;20029;-54
2023/04/25 10:39:09;;;;;;;6.93;1.20;;;;;;;10.23;83.45;101727.28;5064887;28;20067;-53
2023/04/25 10:41:52;;;;;;;8.25;1.30;;;;;;;10.50;80.29;101721.53;5066555;28;20040;-55
2023/04/25 10:44:18;;;;;;;2.30;1.10;;;;;;;10.65;78.53;101732.72;5065784;28;20020;-57
2023/04/25 10:46:45;;;;;;;5.03;1.25;;;;;;;11.00;76.69;101720.56;5066158;28;20066;-55
2023/04/25 10:49:11;;;;;;;6.43;1.48;;;;;;;11.05;78.47;101731.84;5063754;28;20025;-54
2023/04/25 10:51:36;;;;;;;6.53;1.35;;;;;;;10.85;77.73;101737.56;5064659;28;20032;-58
2023/04/25 10:54:06;;;;;;;8.80;1.55;;;;;;;10.53;77.69;101728.53;5057260;28;20021;-53
2023/04/25 10:56:33;;;;;;;5.22;1.48;;;;;;;10.52;78.68;101730.31;5046001;28;20080;-57
2023/04/25 10:59:13;;;;;;;9.10;1.23;;;;;;;10.61;75.40;101730.13;5048031;28;20055;-55
2023/04/25 11:01:43;;;;;;;6.70;1.38;;;;;;;11.14;76.64;101735.22;5049662;28;20036;-54
2023/04/25 11:04:21;;;;;;;6.63;1.80;;;;;;;11.15;73.00;101729.03;5049489;28;20028;-55
2023/04/25 11:07:04;;;;;;;9.05;1.73;;;;;;;11.15;73.41;101734.28;5065381;28;20031;-54
2023/04/25 11:09:30;;;;;;;12.23;1.83;;;;;;;11.11;74.44;101737.00;5071869;28;20052;-57
2023/04/25 11:11:59;;;;;;;8.93;2.75;;;;;;;10.97;75.75;101737.31;5070853;28;20055;-55
2023/04/25 11:14:25;;;;;;;10.10;1.50;;;;;;;11.04;74.72;101740.69;5068416;28;20025;-58
2023/04/25 11:16:58;;;;;;;2.60;1.00;;;;;;;10.89;73.76;101747.13;5070018;28;20025;-56